Time;durP1;ratioP1;P1;durP2;ratioP2;P2;SDS_P1;SDS_P2;PMS_P1;PMS_P2;Temp;Humidity;BMP_temperature;BMP_pressure;BME280_temperature;BME280_humidity;BME280_pressure;Samples;Min_cycle;Max_cycle;Signal;HPM_P1;HPM_P2
2023/03/05 00:01:33;;;;;;;39.88;18.63;;;;;;;7.77;53.04;100863.66;5072702;28;20391;-77
2023/03/05 00:03:59;;;;;;;42.75;18.25;;;;;;;7.70;52.63;100857.31;5072606;28;20383;-78
2023/03/05 00:06:28;;;;;;;37.67;17.58;;;;;;;7.73;52.90;100862.28;5076450;28;20802;-77
2023/03/05 00:08:57;;;;;;;36.42;17.13;;;;;;;7.68;52.91;100861.91;5074102;28;20387;-77
2023/03/05 00:11:24;;;;;;;38.97;17.35;;;;;;;7.57;53.06;100846.28;5072210;28;20387;-78
2023/03/05 00:13:53;;;;;;;42.55;17.55;;;;;;;7.63;53.02;100841.25;5065087;28;20393;-77
2023/03/05 00:16:19;;;;;;;44.55;17.83;;;;;;;7.60;52.68;100853.91;5075151;28;20401;-78
2023/03/05 00:18:45;;;;;;;39.13;16.60;;;;;;;7.54;53.02;100851.84;5075336;28;20395;-77
2023/03/05 00:21:21;;;;;;;37.87;18.23;;;;;;;7.66;52.86;100851.50;5076427;28;20467;-78
2023/03/05 00:23:49;;;;;;;37.15;16.92;;;;;;;7.53;52.93;100852.84;5073381;28;20922;-79
2023/03/05 00:26:15;;;;;;;36.42;16.90;;;;;;;7.54;53.31;100842.13;5072015;28;20395;-78
2023/03/05 00:28:41;;;;;;;35.00;17.37;;;;;;;7.73;52.94;100829.81;5075365;28;20405;-78
2023/03/05 00:31:06;;;;;;;38.23;17.20;;;;;;;7.61;52.65;100834.44;5073862;28;20386;-78
2023/03/05 00:33:32;;;;;;;36.97;17.13;;;;;;;7.46;53.39;100847.31;5073064;28;20460;-78
2023/03/05 00:36:00;;;;;;;35.13;17.93;;;;;;;7.47;53.47;100838.41;5071918;28;20375;-79
2023/03/05 00:38:26;;;;;;;33.85;17.88;;;;;;;7.56;53.36;100820.88;5065628;28;20387;-78
2023/03/05 00:40:51;;;;;;;41.90;18.17;;;;;;;7.73;53.26;100830.63;5071803;28;20390;-78
2023/03/05 00:43:16;;;;;;;36.23;17.83;;;;;;;7.66;52.65;100825.09;5071339;28;20383;-78
2023/03/05 00:45:42;;;;;;;35.50;16.93;;;;;;;7.52;53.25;100822.97;5071246;28;20398;-78
2023/03/05 00:48:08;;;;;;;32.80;16.93;;;;;;;7.46;53.53;100820.94;5070525;28;20386;-78
2023/03/05 00:50:34;;;;;;;39.92;18.27;;;;;;;7.44;53.26;100815.78;5072297;28;20375;-78
2023/03/05 00:52:59;;;;;;;35.90;17.48;;;;;;;7.52;53.12;100812.41;5066895;28;20413;-78
2023/03/05 00:55:24;;;;;;;42.07;18.13;;;;;;;7.53;53.11;100808.81;5066605;28;20421;-77
2023/03/05 00:57:50;;;;;;;38.37;17.73;;;;;;;7.46;53.27;100805.94;5069488;28;20398;-79
2023/03/05 01:00:16;;;;;;;34.90;16.65;;;;;;;7.56;52.76;100790.06;5070602;28;20389;-79
2023/03/05 01:02:41;;;;;;;40.63;17.20;;;;;;;7.40;53.14;100798.63;5070052;28;20379;-79
2023/03/05 01:05:12;;;;;;;35.37;16.37;;;;;;;7.38;53.24;100802.34;5071055;28;20543;-78
2023/03/05 01:07:38;;;;;;;37.45;16.60;;;;;;;7.40;53.10;100789.84;5071607;28;20391;-79
2023/03/05 01:10:05;;;;;;;38.15;16.83;;;;;;;7.56;53.04;100789.22;5065694;28;20755;-78
2023/03/05 01:12:30;;;;;;;33.00;16.40;;;;;;;7.45;53.01;100783.19;5069349;28;20744;-79
2023/03/05 01:14:56;;;;;;;32.30;16.30;;;;;;;7.47;53.17;100796.19;5071616;28;20397;-79
2023/03/05 01:17:21;;;;;;;35.40;16.23;;;;;;;7.45;52.76;100788.47;5070764;28;20387;-79
2023/03/05 01:19:47;;;;;;;35.92;16.60;;;;;;;7.46;52.95;100786.63;5065240;28;20776;-79
2023/03/05 01:22:12;;;;;;;32.73;16.20;;;;;;;7.47;52.88;100793.56;5064261;28;20382;-79
2023/03/05 01:24:38;;;;;;;28.17;14.73;;;;;;;7.37;52.67;100779.63;5068691;28;20391;-78
2023/03/05 01:27:03;;;;;;;32.47;16.05;;;;;;;7.31;53.31;100796.00;5071788;28;20763;-79
2023/03/05 01:29:29;;;;;;;33.78;15.38;;;;;;;7.32;53.20;100789.78;5061946;28;20849;-79
2023/03/05 01:31:55;;;;;;;35.38;16.20;;;;;;;7.36;52.88;100784.03;5058706;28;20796;-79
2023/03/05 01:34:20;;;;;;;31.37;15.20;;;;;;;7.36;52.77;100789.31;5070719;28;20387;-79
2023/03/05 01:36:48;;;;;;;34.07;14.93;;;;;;;7.31;53.00;100788.09;5067167;28;20393;-79
2023/03/05 01:39:14;;;;;;;32.67;15.90;;;;;;;7.39;52.95;100785.56;5068179;28;20419;-78
2023/03/05 01:41:39;;;;;;;25.10;13.37;;;;;;;7.39;52.57;100769.75;5065029;28;20379;-79
2023/03/05 01:44:05;;;;;;;35.30;15.75;;;;;;;7.41;52.59;100767.78;5071111;28;20382;-79
2023/03/05 01:46:40;;;;;;;32.35;15.25;;;;;;;7.45;52.71;100770.00;5067293;28;20514;-80
2023/03/05 01:49:09;;;;;;;30.67;14.93;;;;;;;7.45;52.37;100772.63;5054651;28;20384;-79
2023/03/05 01:51:40;;;;;;;31.05;14.60;;;;;;;7.38;52.37;100770.72;5067814;28;20383;-78
2023/03/05 01:54:07;;;;;;;29.27;14.00;;;;;;;7.43;52.72;100768.47;5070113;28;20383;-79
2023/03/05 01:56:33;;;;;;;34.25;15.40;;;;;;;7.49;52.14;100759.13;5070138;28;20403;-79
2023/03/05 01:59:04;;;;;;;34.67;15.73;;;;;;;7.45;52.30;100770.00;5071712;28;20750;-79
2023/03/05 02:01:38;;;;;;;35.63;15.43;;;;;;;7.27;52.66;100777.88;5073639;28;20409;-78
2023/03/05 02:04:04;;;;;;;36.50;15.18;;;;;;;7.38;52.75;100770.72;5069147;28;20400;-77
2023/03/05 02:06:29;;;;;;;33.08;15.60;;;;;;;7.39;52.42;100767.13;5069079;28;20410;-77
2023/03/05 02:08:55;;;;;;;33.67;15.75;;;;;;;7.27;52.54;100771.75;5069211;28;20391;-78
2023/03/05 02:11:21;;;;;;;33.13;15.90;;;;;;;7.14;53.05;100777.34;5072774;28;20463;-78
2023/03/05 02:13:46;;;;;;;39.75;16.48;;;;;;;7.22;52.60;100787.16;5072651;28;20387;-78
2023/03/05 02:16:12;;;;;;;32.57;15.10;;;;;;;7.22;52.65;100785.38;5073911;28;20410;-78
2023/03/05 02:18:37;;;;;;;37.97;16.60;;;;;;;7.14;52.82;100773.91;5075194;28;20383;-77
2023/03/05 02:21:07;;;;;;;42.47;16.73;;;;;;;7.10;52.82;100780.44;5060628;28;20423;-78
2023/03/05 02:23:37;;;;;;;33.85;16.77;;;;;;;7.16;52.65;100772.78;5071936;28;20842;-77
2023/03/05 02:26:05;;;;;;;36.87;16.07;;;;;;;7.22;52.76;100784.53;5057702;28;20882;-77
2023/03/05 02:28:39;;;;;;;37.07;16.57;;;;;;;7.20;52.45;100770.66;5059447;28;20399;-78
2023/03/05 02:31:12;;;;;;;39.65;15.98;;;;;;;7.21;52.53;100777.63;5056814;28;20470;-78
2023/03/05 02:33:38;;;;;;;39.50;16.10;;;;;;;7.10;52.76;100768.09;5054562;28;20415;-77
2023/03/05 02:36:04;;;;;;;40.03;16.10;;;;;;;7.13;52.87;100766.97;5050363;28;20662;-77
2023/03/05 02:38:29;;;;;;;40.72;16.08;;;;;;;7.33;52.64;100773.81;5057155;28;20407;-77
2023/03/05 02:40:54;;;;;;;34.80;15.60;;;;;;;7.17;52.73;100770.97;5055218;28;20404;-77
2023/03/05 02:43:20;;;;;;;39.67;16.02;;;;;;;7.14;52.80;100773.91;5054179;28;20890;-77
2023/03/05 02:45:45;;;;;;;35.97;16.03;;;;;;;7.12;52.85;100775.88;5051830;28;20849;-77
2023/03/05 02:48:11;;;;;;;36.70;15.90;;;;;;;7.16;52.53;100767.50;5053846;28;20467;-78
2023/03/05 02:50:38;;;;;;;35.65;16.77;;;;;;;7.08;52.70;100764.78;5053464;28;20385;-77
2023/03/05 02:53:04;;;;;;;40.28;17.45;;;;;;;7.04;53.01;100768.66;5056240;28;20406;-77
2023/03/05 02:55:30;;;;;;;38.58;16.20;;;;;;;6.87;53.24;100768.44;5054244;28;20393;-77
2023/03/05 02:57:55;;;;;;;39.60;16.60;;;;;;;6.93;53.35;100771.50;5061213;28;20753;-77
2023/03/05 03:00:21;;;;;;;37.43;16.23;;;;;;;6.92;53.39;100768.03;5056828;28;20424;-78
2023/03/05 03:02:46;;;;;;;37.05;16.10;;;;;;;6.73;53.66;100768.09;5058025;28;20499;-78
2023/03/05 03:05:12;;;;;;;38.50;17.20;;;;;;;6.87;53.72;100765.00;5054015;28;20872;-77
2023/03/05 03:07:37;;;;;;;43.07;18.47;;;;;;;6.94;53.38;100768.72;5050359;28;20745;-77
2023/03/05 03:10:04;;;;;;;70.63;32.53;;;;;;;6.89;53.53;100777.03;5051172;28;20694;-77
2023/03/05 03:12:29;;;;;;;38.70;17.35;;;;;;;6.97;53.08;100767.56;5056369;28;20443;-77
2023/03/05 03:14:55;;;;;;;37.27;16.93;;;;;;;7.11;52.83;100774.19;5054323;28;20940;-77
2023/03/05 03:17:20;;;;;;;35.63;16.30;;;;;;;7.11;52.77;100774.19;5057291;28;20384;-77
2023/03/05 03:19:46;;;;;;;33.87;16.40;;;;;;;7.15;52.67;100765.84;5069554;28;20480;-78
2023/03/05 03:22:14;;;;;;;43.10;17.30;;;;;;;7.10;52.75;100776.00;5060054;28;20864;-78
2023/03/05 03:24:41;;;;;;;41.60;17.98;;;;;;;7.17;52.90;100773.63;5061890;28;20398;-77
2023/03/05 03:27:07;;;;;;;39.30;17.63;;;;;;;7.16;53.00;100761.41;5051379;28;20384;-77
2023/03/05 03:29:32;;;;;;;33.17;15.00;;;;;;;7.07;52.91;100769.19;5057106;28;20396;-78
2023/03/05 03:31:58;;;;;;;34.72;15.23;;;;;;;7.02;53.17;100758.28;5056409;28;20417;-78
2023/03/05 03:34:24;;;;;;;34.00;15.63;;;;;;;7.01;52.83;100758.44;5057458;28;20474;-77
2023/03/05 03:36:51;;;;;;;40.78;17.25;;;;;;;6.94;53.23;100754.72;5055777;28;20496;-78
2023/03/05 03:39:18;;;;;;;33.17;14.83;;;;;;;6.93;53.42;100750.41;5055204;28;20385;-77
2023/03/05 03:41:46;;;;;;;34.75;15.52;;;;;;;6.98;53.27;100761.34;5055992;28;20384;-78
2023/03/05 03:44:12;;;;;;;34.80;15.60;;;;;;;7.03;52.96;100765.19;5051608;28;20479;-77
2023/03/05 03:46:38;;;;;;;35.03;15.23;;;;;;;7.01;52.97;100756.63;5056871;28;20468;-78
2023/03/05 03:49:05;;;;;;;37.10;16.23;;;;;;;6.96;53.31;100761.47;5065421;28;20903;-77
2023/03/05 03:51:31;;;;;;;28.40;14.20;;;;;;;6.88;53.49;100753.50;5062003;28;20387;-78
2023/03/05 03:53:56;;;;;;;34.40;15.70;;;;;;;6.98;52.84;100758.72;5056435;28;20395;-78
2023/03/05 03:56:22;;;;;;;32.33;15.03;;;;;;;7.01;52.97;100763.69;5058168;28;20396;-78
2023/03/05 03:58:51;;;;;;;34.40;14.98;;;;;;;7.06;52.80;100767.56;5052578;28;20396;-78
2023/03/05 04:01:18;;;;;;;32.40;16.08;;;;;;;7.07;52.90;100768.38;5055878;28;20409;-78
2023/03/05 04:03:44;;;;;;;32.55;14.70;;;;;;;7.10;52.59;100765.47;5052272;28;20404;-77
2023/03/05 04:06:09;;;;;;;33.47;14.73;;;;;;;7.14;52.64;100771.28;5050549;28;20389;-78
2023/03/05 04:08:35;;;;;;;29.53;16.57;;;;;;;7.19;52.34;100758.47;5054453;28;20501;-78
2023/03/05 04:11:01;;;;;;;29.57;13.60;;;;;;;7.11;52.45;100766.28;5053885;28;20392;-77
2023/03/05 04:13:26;;;;;;;27.67;14.47;;;;;;;7.02;52.57;100760.94;5055281;28;20395;-77
2023/03/05 04:15:53;;;;;;;34.07;14.40;;;;;;;7.03;52.38;100772.28;5055838;28;20420;-77
2023/03/05 04:18:19;;;;;;;30.90;15.02;;;;;;;6.99;52.60;100768.28;5052641;28;20404;-77
2023/03/05 04:20:44;;;;;;;30.35;14.40;;;;;;;7.02;52.43;100766.19;5056653;28;20485;-78
2023/03/05 04:23:10;;;;;;;30.58;14.98;;;;;;;7.05;52.61;100760.59;5053350;28;20393;-78
2023/03/05 04:25:35;;;;;;;26.57;13.63;;;;;;;7.04;52.18;100763.38;5055530;28;20393;-77
2023/03/05 04:28:01;;;;;;;23.50;12.23;;;;;;;6.98;52.44;100762.16;5050948;28;20396;-78
2023/03/05 04:30:27;;;;;;;30.98;14.38;;;;;;;6.92;52.53;100765.41;5053444;28;21685;-78
2023/03/05 04:32:52;;;;;;;32.70;14.93;;;;;;;6.91;52.55;100768.16;5061531;28;20879;-78
2023/03/05 04:35:17;;;;;;;28.63;14.60;;;;;;;6.89;52.76;100766.50;5055559;28;20781;-78
2023/03/05 04:37:43;;;;;;;26.47;13.83;;;;;;;6.83;52.65;100759.19;5051734;28;20407;-78
2023/03/05 04:40:10;;;;;;;30.50;15.65;;;;;;;6.89;52.92;100758.59;5058115;28;20405;-79
2023/03/05 04:42:36;;;;;;;29.38;14.27;;;;;;;6.93;52.60;100750.41;5057037;28;20388;-78
2023/03/05 04:45:03;;;;;;;30.17;16.08;;;;;;;6.99;52.83;100750.66;5055114;28;20395;-79
2023/03/05 04:47:28;;;;;;;29.98;15.02;;;;;;;7.10;52.55;100762.00;5052194;28;20511;-79
2023/03/05 04:49:54;;;;;;;33.17;14.38;;;;;;;7.01;52.68;100759.25;5054166;28;20457;-77
2023/03/05 04:52:19;;;;;;;29.33;13.90;;;;;;;7.01;52.50;100761.06;5051688;28;20423;-77
2023/03/05 04:54:44;;;;;;;33.53;17.13;;;;;;;7.08;52.47;100765.59;5064477;28;20788;-78
2023/03/05 04:57:10;;;;;;;28.27;15.57;;;;;;;7.05;52.40;100765.06;5050691;28;20403;-78
2023/03/05 04:59:36;;;;;;;31.83;16.80;;;;;;;7.09;52.43;100763.78;5051181;28;20454;-78
2023/03/05 05:02:02;;;;;;;28.33;15.80;;;;;;;7.10;52.10;100760.19;5053744;28;20463;-79
2023/03/05 05:04:28;;;;;;;28.92;14.45;;;;;;;7.03;52.34;100754.66;5054679;28;20465;-79
2023/03/05 05:06:56;;;;;;;31.27;15.93;;;;;;;7.13;52.68;100764.31;5049770;28;20465;-78
2023/03/05 05:09:22;;;;;;;30.35;15.32;;;;;;;7.05;52.50;100768.50;5052373;28;20392;-78
2023/03/05 05:11:48;;;;;;;31.25;14.65;;;;;;;7.06;52.53;100772.00;5056043;28;20518;-78
2023/03/05 05:14:13;;;;;;;31.53;14.67;;;;;;;6.92;52.44;100772.47;5051422;28;20420;-78
2023/03/05 05:16:39;;;;;;;29.57;14.77;;;;;;;6.96;52.83;100760.66;5055211;28;20484;-77
2023/03/05 05:19:04;;;;;;;34.70;15.27;;;;;;;7.06;52.77;100767.56;5051994;28;20386;-78
2023/03/05 05:21:30;;;;;;;34.38;17.35;;;;;;;7.13;52.58;100766.97;5054422;28;20416;-79
2023/03/05 05:23:55;;;;;;;36.33;17.63;;;;;;;7.14;52.48;100776.53;5059587;28;20401;-78
2023/03/05 05:26:21;;;;;;;33.23;16.43;;;;;;;7.16;52.23;100772.78;5054738;28;20388;-78
2023/03/05 05:28:46;;;;;;;33.22;15.68;;;;;;;7.12;52.58;100775.88;5056233;28;20506;-78
2023/03/05 05:31:14;;;;;;;51.10;30.37;;;;;;;7.21;52.48;100775.81;5049558;28;20862;-79
2023/03/05 05:33:40;;;;;;;31.77;16.08;;;;;;;7.33;52.16;100784.34;5052245;28;20792;-79
2023/03/05 05:36:08;;;;;;;30.90;15.35;;;;;;;7.41;52.08;100781.78;5057666;28;20399;-79
2023/03/05 05:38:33;;;;;;;31.77;15.65;;;;;;;7.37;51.81;100792.81;5057190;28;20397;-78
2023/03/05 05:41:09;;;;;;;31.58;15.00;;;;;;;7.36;51.90;100786.69;5056206;28;20396;-77
2023/03/05 05:43:35;;;;;;;33.33;16.27;;;;;;;7.44;51.92;100801.78;5057134;28;20539;-78
2023/03/05 05:46:02;;;;;;;30.43;15.10;;;;;;;7.42;52.31;100788.75;5054879;28;20444;-78
2023/03/05 05:48:29;;;;;;;33.05;15.70;;;;;;;7.46;52.00;100800.66;5058083;28;20402;-77
2023/03/05 05:50:56;;;;;;;29.73;15.30;;;;;;;7.50;52.07;100800.38;5056290;28;20392;-77
2023/03/05 05:53:22;;;;;;;32.65;15.40;;;;;;;7.46;51.78;100802.47;5052242;28;20396;-77
2023/03/05 05:55:47;;;;;;;29.92;15.63;;;;;;;7.61;52.08;100808.88;5060203;28;20863;-78
2023/03/05 05:58:13;;;;;;;31.20;15.60;;;;;;;7.65;51.64;100804.16;5052589;28;20400;-77
2023/03/05 06:00:38;;;;;;;29.98;15.48;;;;;;;7.65;51.66;100814.69;5054187;28;20396;-78
2023/03/05 06:03:04;;;;;;;31.00;15.73;;;;;;;7.52;51.86;100812.41;5055353;28;20391;-78
2023/03/05 06:05:29;;;;;;;31.67;14.77;;;;;;;7.58;51.54;100818.91;5052700;28;20460;-78
2023/03/05 06:07:55;;;;;;;30.63;16.08;;;;;;;7.54;51.70;100813.09;5054933;28;20395;-77
2023/03/05 06:10:20;;;;;;;30.97;15.33;;;;;;;7.53;51.94;100819.38;5063685;28;20427;-78
2023/03/05 06:12:46;;;;;;;29.53;15.77;;;;;;;7.56;52.18;100820.88;5063780;28;20414;-78
2023/03/05 06:15:11;;;;;;;31.73;15.57;;;;;;;7.55;52.20;100811.31;5063858;28;20440;-77
2023/03/05 06:17:37;;;;;;;30.58;15.57;;;;;;;7.50;52.22;100813.56;5064476;28;20446;-78
2023/03/05 06:20:04;;;;;;;29.13;15.10;;;;;;;7.59;52.10;100815.31;5068891;28;20702;-78
2023/03/05 06:22:29;;;;;;;34.80;16.17;;;;;;;7.67;52.17;100818.03;5065170;28;20439;-78
2023/03/05 06:24:55;;;;;;;31.47;16.17;;;;;;;7.74;51.98;100818.25;5065529;28;20738;-79
2023/03/05 06:27:21;;;;;;;28.15;14.85;;;;;;;7.59;52.97;100837.22;5064347;28;20806;-79
2023/03/05 06:29:46;;;;;;;32.63;15.73;;;;;;;7.73;52.75;100825.34;5067046;28;20398;-78
2023/03/05 06:32:12;;;;;;;40.13;16.88;;;;;;;7.90;52.58;100815.78;5068829;28;20434;-79
2023/03/05 06:34:37;;;;;;;33.97;14.87;;;;;;;7.84;51.92;100814.56;5064976;28;20420;-79
2023/03/05 06:37:03;;;;;;;31.80;14.53;;;;;;;7.58;52.44;100817.13;5066947;28;20789;-78
2023/03/05 06:39:30;;;;;;;27.73;15.20;;;;;;;7.90;52.25;100826.34;5068250;28;20445;-78
2023/03/05 06:41:55;;;;;;;32.05;15.52;;;;;;;7.94;51.62;100826.88;5062982;28;20412;-78
2023/03/05 06:44:21;;;;;;;30.57;13.80;;;;;;;7.97;51.59;100835.31;5062929;28;20505;-78
2023/03/05 06:46:46;;;;;;;31.80;16.35;;;;;;;8.21;51.65;100818.91;5068614;28;20499;-78
2023/03/05 06:49:12;;;;;;;39.40;17.57;;;;;;;8.32;50.75;100820.47;5064365;28;20377;-80
2023/03/05 06:51:39;;;;;;;38.53;15.60;;;;;;;8.19;50.93;100822.66;5064876;28;20405;-78
2023/03/05 06:54:08;;;;;;;39.90;16.63;;;;;;;8.35;50.82;100811.41;5061873;28;20881;-78
2023/03/05 06:56:35;;;;;;;40.63;15.40;;;;;;;8.49;50.20;100821.44;5058672;28;20380;-78
2023/03/05 06:59:01;;;;;;;36.88;15.52;;;;;;;8.57;49.59;100825.94;5065520;28;20396;-78
2023/03/05 07:01:26;;;;;;;26.40;12.87;;;;;;;8.38;49.36;100811.91;5063305;28;20453;-78
2023/03/05 07:03:53;;;;;;;28.97;13.80;;;;;;;8.46;49.53;100818.28;5063758;28;20403;-78
2023/03/05 07:06:21;;;;;;;23.53;12.47;;;;;;;8.33;48.87;100827.41;5063988;28;20379;-79
2023/03/05 07:08:47;;;;;;;28.00;13.32;;;;;;;8.45;49.01;100837.78;5065656;28;20440;-80
2023/03/05 07:11:14;;;;;;;26.45;12.52;;;;;;;8.25;48.66;100822.06;5066363;28;20490;-79
2023/03/05 07:13:41;;;;;;;25.52;12.77;;;;;;;8.27;47.99;100822.72;5061662;28;20926;-78
2023/03/05 07:16:13;;;;;;;30.03;14.33;;;;;;;8.36;48.16;100824.47;5066733;28;20470;-78
2023/03/05 07:18:39;;;;;;;25.67;12.97;;;;;;;8.40;47.86;100824.97;5062781;28;20458;-80
2023/03/05 07:21:07;;;;;;;26.63;14.13;;;;;;;8.47;47.33;100822.59;5060887;28;20773;-79
2023/03/05 07:23:34;;;;;;;27.30;13.40;;;;;;;8.71;47.45;100827.22;5062236;28;20375;-78
2023/03/05 07:26:01;;;;;;;27.80;13.20;;;;;;;8.87;46.75;100829.97;5069996;28;20391;-79
2023/03/05 07:28:26;;;;;;;29.90;14.02;;;;;;;8.97;46.18;100841.28;5059250;28;20872;-80
2023/03/05 07:31:18;;;;;;;28.60;14.30;;;;;;;8.89;46.31;100821.88;5061995;28;20395;-78
2023/03/05 07:33:45;;;;;;;25.73;12.50;;;;;;;8.89;45.96;100829.81;5056421;28;20818;-78
2023/03/05 07:36:12;;;;;;;23.55;11.65;;;;;;;8.69;45.82;100827.38;5060993;28;20377;-77
2023/03/05 07:38:38;;;;;;;32.28;13.60;;;;;;;8.78;45.14;100826.44;5064634;28;20735;-78
2023/03/05 07:41:11;;;;;;;21.45;10.43;;;;;;;8.74;44.85;100825.09;5067703;28;20981;-79
2023/03/05 07:43:37;;;;;;;24.88;12.15;;;;;;;8.77;44.79;100805.47;5071170;28;20383;-78
2023/03/05 07:46:05;;;;;;;31.65;13.45;;;;;;;9.02;44.51;100814.38;5061372;28;20408;-78
2023/03/05 07:48:30;;;;;;;23.93;11.43;;;;;;;9.22;43.21;100817.59;5057709;28;20872;-80
2023/03/05 07:51:14;;;;;;;24.90;14.13;;;;;;;9.06;43.77;100822.81;5058410;28;20387;-79
2023/03/05 07:53:41;;;;;;;24.77;12.57;;;;;;;9.11;43.58;100808.13;5057902;28;20445;-78
2023/03/05 07:56:07;;;;;;;24.83;12.43;;;;;;;9.40;42.62;100819.31;5059605;28;20978;-78
2023/03/05 07:58:33;;;;;;;20.42;10.30;;;;;;;9.50;42.60;100822.66;5059852;28;20383;-78
2023/03/05 08:00:58;;;;;;;23.30;12.53;;;;;;;9.53;42.68;100825.00;5060426;28;20513;-77
2023/03/05 08:03:24;;;;;;;23.77;12.47;;;;;;;9.72;42.60;100831.81;5055455;28;20388;-77
2023/03/05 08:05:49;;;;;;;21.42;11.02;;;;;;;9.58;42.04;100814.75;5052645;28;20388;-79
2023/03/05 08:08:15;;;;;;;24.07;11.87;;;;;;;9.64;41.68;100821.22;5054415;28;20389;-79
2023/03/05 08:10:41;;;;;;;22.97;12.53;;;;;;;9.74;41.76;100817.44;5069785;28;20375;-79
2023/03/05 08:13:06;;;;;;;20.83;11.30;;;;;;;9.86;40.99;100828.53;5065390;28;20406;-78
2023/03/05 08:15:32;;;;;;;21.73;11.00;;;;;;;9.88;40.97;100826.56;5067815;28;20395;-78
2023/03/05 08:17:58;;;;;;;23.50;12.43;;;;;;;10.09;41.43;100820.81;5071653;28;20818;-77
2023/03/05 08:20:24;;;;;;;23.02;11.23;;;;;;;10.21;41.05;100817.81;5071473;28;20897;-77
2023/03/05 08:22:49;;;;;;;25.02;12.00;;;;;;;10.05;40.80;100824.78;5069005;28;20388;-77
2023/03/05 08:25:15;;;;;;;27.80;15.50;;;;;;;10.29;41.00;100829.25;5069434;28;20386;-80
2023/03/05 08:27:42;;;;;;;15.90;8.97;;;;;;;9.97;39.16;100832.69;5071221;28;20466;-78
2023/03/05 08:30:11;;;;;;;20.13;9.77;;;;;;;9.68;40.22;100817.25;5067635;28;20398;-78
2023/03/05 08:32:36;;;;;;;20.45;8.73;;;;;;;9.79;39.11;100824.88;5065639;28;20408;-79
2023/03/05 08:35:03;;;;;;;17.00;8.10;;;;;;;9.74;39.23;100835.97;5069196;28;20467;-77
2023/03/05 08:37:29;;;;;;;15.15;6.95;;;;;;;9.68;37.32;100815.44;5065729;28;20474;-78
2023/03/05 08:39:55;;;;;;;16.23;7.50;;;;;;;9.45;37.40;100812.53;5069924;28;20383;-78
2023/03/05 08:42:21;;;;;;;13.17;7.40;;;;;;;9.58;37.15;100825.34;5070466;28;20363;-77
2023/03/05 08:44:47;;;;;;;15.38;7.90;;;;;;;9.63;37.23;100828.31;5071465;28;20371;-79
2023/03/05 08:47:12;;;;;;;19.50;8.70;;;;;;;9.61;38.07;100819.72;5071005;28;20516;-79
2023/03/05 08:49:38;;;;;;;19.37;8.70;;;;;;;9.54;37.62;100818.69;5054319;28;20423;-78
2023/03/05 08:52:04;;;;;;;17.33;7.13;;;;;;;9.30;38.52;100817.63;5065171;28;20454;-79
2023/03/05 08:54:29;;;;;;;20.65;9.73;;;;;;;9.85;37.96;100820.75;5064906;28;20391;-78
2023/03/05 08:56:55;;;;;;;18.25;7.53;;;;;;;9.80;37.73;100812.50;5064833;28;20383;-78
2023/03/05 08:59:20;;;;;;;11.97;6.50;;;;;;;9.95;37.45;100821.44;5064942;28;20894;-78
2023/03/05 09:01:46;;;;;;;15.93;6.63;;;;;;;9.74;37.64;100824.53;5066860;28;20498;-79
2023/03/05 09:04:12;;;;;;;14.00;6.85;;;;;;;9.67;38.20;100836.75;5056766;28;20400;-77
2023/03/05 09:06:39;;;;;;;14.50;8.30;;;;;;;9.64;38.93;100819.41;5067536;28;20719;-77
2023/03/05 09:09:06;;;;;;;17.85;7.70;;;;;;;9.31;38.84;100816.66;5062734;28;20396;-77
2023/03/05 09:11:34;;;;;;;16.20;7.47;;;;;;;9.29;38.97;100810.69;5065372;28;20401;-76
2023/03/05 09:14:02;;;;;;;16.40;8.57;;;;;;;9.76;38.80;100806.69;5071170;28;20403;-78
2023/03/05 09:16:27;;;;;;;16.90;6.97;;;;;;;9.68;38.41;100806.66;5067241;28;20964;-77
2023/03/05 09:18:53;;;;;;;15.40;7.70;;;;;;;9.99;38.99;100793.63;5070301;28;20387;-78
2023/03/05 09:21:18;;;;;;;16.20;7.93;;;;;;;10.12;38.08;100793.19;5070253;28;20452;-77
2023/03/05 09:23:45;;;;;;;21.38;9.00;;;;;;;10.63;38.08;100795.66;5069841;28;20414;-78
2023/03/05 09:26:12;;;;;;;16.10;8.10;;;;;;;10.64;37.34;100805.25;5056905;28;20383;-77
2023/03/05 09:28:39;;;;;;;19.25;8.32;;;;;;;10.52;37.22;100796.84;5067911;28;20398;-78
2023/03/05 09:31:06;;;;;;;15.10;7.43;;;;;;;10.68;36.97;100799.47;5067248;28;20391;-77
2023/03/05 09:33:32;;;;;;;16.83;7.85;;;;;;;10.72;37.10;100797.28;5068727;28;20473;-77
2023/03/05 09:35:59;;;;;;;15.35;7.65;;;;;;;10.81;36.85;100788.31;5068742;28;20434;-77
2023/03/05 09:38:24;;;;;;;16.98;8.73;;;;;;;10.87;36.93;100792.94;5061030;28;20432;-78
2023/03/05 09:41:13;;;;;;;17.55;8.93;;;;;;;10.97;36.56;100800.72;5061093;28;20540;-77
2023/03/05 09:44:15;;;;;;;16.88;7.80;;;;;;;11.15;36.33;100797.84;5064543;28;20379;-78
2023/03/05 09:46:55;;;;;;;16.48;8.55;;;;;;;11.13;36.75;100789.22;5072421;28;20406;-76
2023/03/05 09:49:50;;;;;;;17.58;8.23;;;;;;;11.28;35.92;100792.78;5059060;28;20449;-78
2023/03/05 09:52:21;;;;;;;16.77;8.25;;;;;;;11.08;36.35;100791.56;5060982;28;20413;-77
2023/03/05 09:54:53;;;;;;;19.90;9.43;;;;;;;11.26;35.97;100791.31;5056330;28;20971;-78
2023/03/05 09:57:27;;;;;;;18.25;8.32;;;;;;;11.12;36.05;100787.56;5058876;28;20387;-76
2023/03/05 09:59:58;;;;;;;14.32;8.10;;;;;;;11.38;36.15;100765.22;5055431;28;20402;-76
2023/03/05 10:02:29;;;;;;;18.75;8.00;;;;;;;11.20;36.24;100781.38;5057306;28;20395;-77
2023/03/05 10:05:19;;;;;;;13.80;6.80;;;;;;;10.94;36.06;100773.72;5064959;28;20399;-76
2023/03/05 10:07:55;;;;;;;15.00;6.55;;;;;;;11.16;36.19;100774.78;5065277;28;20462;-78
2023/03/05 10:10:43;;;;;;;16.60;6.45;;;;;;;11.19;35.76;100767.31;5069066;28;20391;-77
2023/03/05 10:13:21;;;;;;;16.98;7.00;;;;;;;11.36;35.63;100770.72;5066259;28;20406;-78
2023/03/05 10:16:04;;;;;;;14.68;7.30;;;;;;;11.50;35.62;100765.66;5067319;28;20383;-80
2023/03/05 10:18:40;;;;;;;18.73;6.30;;;;;;;11.35;35.31;100757.63;5065518;28;20419;-78
2023/03/05 10:21:37;;;;;;;16.07;7.07;;;;;;;11.36;35.34;100762.75;5067628;28;20390;-77
2023/03/05 10:24:26;;;;;;;14.33;5.60;;;;;;;11.29;35.31;100737.91;5063532;28;20438;-77
2023/03/05 10:26:59;;;;;;;16.58;7.28;;;;;;;11.55;35.19;100744.72;5053226;28;20889;-77
2023/03/05 10:29:46;;;;;;;21.00;7.13;;;;;;;11.44;35.44;100735.34;5065811;28;20471;-77
2023/03/05 10:32:14;;;;;;;16.23;7.10;;;;;;;11.84;34.92;100731.56;5069662;28;20402;-77
2023/03/05 10:35:03;;;;;;;15.90;7.45;;;;;;;12.01;34.58;100713.72;5071956;28;20470;-77
2023/03/05 10:37:35;;;;;;;18.65;7.35;;;;;;;12.02;33.95;100723.31;5072049;28;20847;-77
2023/03/05 10:40:08;;;;;;;11.60;5.68;;;;;;;11.77;33.90;100709.38;5072600;28;20913;-77
2023/03/05 10:42:45;;;;;;;13.88;5.70;;;;;;;11.66;33.68;100715.94;5073285;28;20371;-77
2023/03/05 10:45:22;;;;;;;12.68;5.85;;;;;;;11.63;34.57;100704.84;5073402;28;20731;-76
2023/03/05 10:47:58;;;;;;;15.50;6.30;;;;;;;11.81;34.29;100697.41;5073674;28;20445;-77
2023/03/05 10:50:27;;;;;;;14.32;5.95;;;;;;;11.65;33.91;100703.66;5073534;28;20842;-77
2023/03/05 10:53:28;;;;;;;14.40;6.07;;;;;;;11.90;33.87;100697.34;5073603;28;20921;-77
2023/03/05 10:55:55;;;;;;;18.80;6.80;;;;;;;11.88;33.43;100686.06;5072506;28;20492;-77
2023/03/05 10:58:23;;;;;;;15.60;6.53;;;;;;;11.89;33.42;100669.13;5073343;28;20420;-77
2023/03/05 11:01:17;;;;;;;16.93;6.13;;;;;;;11.73;32.17;100694.00;5072388;28;20382;-77
2023/03/05 11:04:05;;;;;;;13.65;4.88;;;;;;;11.39;33.15;100692.56;5072456;28;20375;-77
2023/03/05 11:06:50;;;;;;;12.00;4.90;;;;;;;11.65;33.20;100674.47;5073285;28;20386;-77
2023/03/05 11:09:21;;;;;;;11.07;4.55;;;;;;;11.42;33.43;100669.16;5073508;28;20379;-76
2023/03/05 11:12:14;;;;;;;14.77;5.75;;;;;;;11.82;33.26;100672.50;5074648;28;20463;-77
2023/03/05 11:15:10;;;;;;;8.77;4.03;;;;;;;11.69;32.82;100661.66;5074075;28;20890;-77
2023/03/05 11:17:43;;;;;;;10.85;4.55;;;;;;;11.76;32.32;100662.59;5075017;28;20757;-78
2023/03/05 11:20:44;;;;;;;9.82;4.43;;;;;;;11.53;32.87;100669.75;5073478;28;20390;-78
2023/03/05 11:23:16;;;;;;;13.95;5.22;;;;;;;11.52;32.46;100662.78;5051494;28;20385;-78